x

San Clemente Basin - 27nm Se Of San Clemente Is, Ca (46086) Wave Buoy

8:50pm - Fri 19th Dec 2014 All times are PST. -8 hours from GMT.

  • Sig Wave height 4.6ft
  • Swell Direction
  • Peak Period 13s
  • Average Period 8s
  • Wind
    11mph, 13mph gusts
  • Sea Temp 65°f
  • Air Temp 62°f
  • Sea Pressure 1021.5mb
  • San Clemente Basin - 27nm Se Of San Clemente Is, Ca
  • San Clemente Basin - 27nm Se Of San Clemente Is, Ca

More Historic Weather Station data

Upgrade to MSW Pro to gain access to the past 30 days of data for over 8000 Wavebouys and Weather Stations around the globe.

Join Pro

Comparision Forecast

View Surf forecast
   
Fri 12/19 8:50pm 4.5ft 13s 8s 11 13 mph 1021.5mb 65f 62f
7:50pm 4.5ft 13s 8s 9 11 mph 1021.8mb 65f 62f
6:50pm 5ft 11s 9s 9 11 mph 1021.9mb 65f 62f
5:50pm 5ft 12s 9s 4 7 mph 1021.5mb 65f 62f
4:50pm 5ft 11s 9s 4 7 mph 1020.7mb 65f 62f
3:50pm 4.5ft 13s 8s 7 9 mph 1020.3mb 65f 62f
2:50pm 4.5ft 13s 8s 4 7 mph 1021.3mb 66f 62f
1:50pm 5ft 13s 9s 4
mph
1022.1mb 66f 62f
12:50pm 5ft 13s 8s 2 4 mph 1022.4mb 65f 63f
11:50am 5ft 14s 8s 4 7 mph 1022.3mb 65f 62f
10:50am 4.5ft 13s 9s 4
mph
1023.1mb 65f 63f
9:50am 5ft 14s 9s 4 7 mph 1023.4mb 65f 62f
8:50am 5.5ft 14s 9s 7
mph
1023.3mb 65f 62f
7:50am 5.5ft 13s 8s 9 11 mph 1022.9mb 65f 62f
6:50am 5ft 13s 9s 7 9 mph 1022.6mb 65f 62f
5:50am 6ft 14s 9s 9 11 mph 1022.4mb 65f 62f
4:50am 5ft 12s 9s 9 11 mph 1021.9mb 65f 62f
3:50am 5ft 11s 9s 7 9 mph 1021.7mb 65f 62f
2:50am 5ft 14s 9s 4
mph
1021.8mb 65f 62f
1:50am 4.5ft 13s 8s 4 7 mph 1022.2mb 65f 62f
12:50am 5ft 13s 8s 4 7 mph 1022.3mb 65f 62f
Thu 12/18 11:50pm 5ft 11s 9s 7 9 mph 1022.7mb 65f 62f
10:50pm 5.5ft 11s 9s 4 7 mph 1022.7mb 65f 62f
9:50pm 5ft 14s 8s 4 7 mph 1022.7mb 65f 62f
8:50pm 5ft 11s 8s 2 4 mph 1022.6mb 65f 62f
7:50pm 5ft 14s 8s 2
mph
1022.4mb 65f 62f
6:50pm 5ft 11s 8s 4 7 mph 1022.2mb 65f 62f
5:50pm 5ft 14s 8s 4 9 mph 1021.7mb 65f 61f
4:50pm 5ft 12s 8s 4 7 mph 1021.3mb 65f 61f
3:50pm 5ft 14s 8s 7 9 mph 1020.9mb 65f 61f
2:50pm 5ft 11s 8s 11 13 mph 1020.9mb 65f 61f
1:50pm 5.5ft 11s 8s 9 11 mph 1020.8mb 65f 62f
12:50pm 6ft 12s 8s 7 9 mph 1021.2mb 65f 62f
11:50am 6ft 12s 8s 9 11 mph 1021.9mb 65f 62f
10:50am 6ft 11s 8s 7 9 mph 1022.6mb 65f 62f
9:50am 6ft 12s 8s 9 11 mph 1022.7mb 65f 62f
8:50am 6.5ft 11s 8s 9 11 mph 1022.2mb 65f 62f
7:50am 7ft 12s 8s 9 11 mph 1021.6mb 65f 62f
6:50am 7.5ft 12s 8s 9 13 mph 1021.2mb 65f 62f
5:50am 8ft 12s 8s 11 13 mph 1020.7mb 65f 62f
4:50am 7ft 12s 7s 13 16 mph 1020.3mb 65f 62f
3:50am 7ft 13s 7s 13 18 mph 1020mb 65f 62f
2:50am 7ft 13s 7s 16 18 mph 1020.1mb 65f 62f
1:50am 6.5ft 11s 7s 16 18 mph 1019.8mb 65f 62f
12:50am 6.5ft 11s 7s 13 16 mph 1019.7mb 65f 62f
Wed 12/17 11:50pm 7ft 12s 7s 13 18 mph 1020.3mb 65f 62f
10:50pm 7ft 13s 7s 13 18 mph 1020.4mb 65f 62f
9:50pm 7ft 14s 7s 16 18 mph 1020.1mb 65f 62f
8:50pm 7ft 11s 7s 13 16 mph 1019.8mb 65f 62f
7:50pm 7ft 13s 7s 7 11 mph 1019.5mb 65f 62f
6:50pm 7ft 14s 7s 13 18 mph 1019.5mb 65f 62f
5:50pm 7ft 14s 7s 13 18 mph 1019.2mb 65f 62f
4:50pm 7ft 15s 7s 18 22 mph 1019.2mb 65f 62f
3:50pm 7ft 15s 7s 20 22 mph 1019.1mb 65f 62f
2:50pm 7ft 15s 7s 20 22 mph 1018.9mb 65f 62f
1:50pm 6.5ft 15s 7s 20 25 mph 1018.5mb 65f 63f
12:50pm 6.5ft 12s 7s 18 22 mph 1018.2mb 65f 63f
11:50am 7.5ft 12s 7s 16 20 mph 1018.4mb 65f 62f
10:50am 7ft 14s 7s 16 20 mph 1019mb 65f 62f
9:50am 7ft 13s 7s 16 18 mph 1018.8mb 65f 62f
8:50am 8ft 13s 7s 18 22 mph 1017.6mb 65f 63f
7:50am 7ft 15s 7s 18 20 mph 1016.6mb 65f 63f
6:50am 8ft 14s 8s 18 22 mph 1015.9mb 65f 63f
5:50am 8ft 14s 8s 18 22 mph 1015.3mb 65f 62f
4:50am 8.5ft 13s 8s 22 27 mph 1015mb 65f 60f
3:50am 8.5ft 15s 9s 16 20 mph 1014.7mb 65f 62f
2:50am 9ft 15s 9s 18 20 mph 1015mb 65f 63f
1:50am 8.5ft 15s 9s 13 16 mph 1015.5mb 65f 63f
12:50am 8.5ft 14s 9s 11 13 mph 1015.7mb 65f 63f
Tue 12/16 11:50pm 8ft 14s 8s 13 18 mph 1016.5mb 66f 63f
10:50pm 9ft 15s 9s 16 20 mph 1016.7mb 66f 63f
9:50pm 9.5ft 15s 9s 16 18 mph 1016.4mb 66f 63f
8:50pm 8ft 15s 8s 16 20 mph 1016.3mb 66f 63f
7:50pm 8ft 16s 8s 16 20 mph 1015.7mb 66f 63f
6:50pm 8.5ft 16s 9s 16 18 mph 1015.5mb 66f 63f
5:50pm 9ft 16s 9s 16 18 mph 1015mb 66f 63f
4:50pm 8.5ft 16s 9s 11 16 mph 1014.5mb 66f 63f
3:50pm 9.5ft 16s 10s 13 18 mph 1014.4mb 66f 64f
2:50pm 9ft 16s 9s 11 16 mph 1014.2mb 66f 63f
1:50pm 9ft 16s 9s 11 16 mph 1014.1mb 66f 63f
12:50pm 9ft 16s 9s 13 18 mph 1014mb 66f 63f
11:50am 9ft 16s 9s 11 13 mph 1014.7mb 66f 62f
10:50am 9ft 17s 8s 18 20 mph 1015.3mb 66f 61f
9:50am 9ft 14s 9s 13 18 mph 1016mb 66f 60f
8:50am 8ft 15s 8s 20 25 mph 1015.3mb 66f 60f
7:50am 9.5ft 17s 9s 16 20 mph 1015.3mb 66f 60f
6:50am 9.5ft 17s 9s 20 25 mph 1014.5mb 66f 63f